sensor_id;sensor_type;location;lat;lon;timestamp;pressure;altitude;pressure_sealevel;temperature;humidity
76297;BME280;65104;52.994;6.552;2023-07-16T00:00:46;100654.28;;;16.87;89.05
76297;BME280;65104;52.994;6.552;2023-07-16T00:03:11;100654.31;;;16.82;90.94
76297;BME280;65104;52.994;6.552;2023-07-16T00:05:39;100656.13;;;16.74;89.59
76297;BME280;65104;52.994;6.552;2023-07-16T00:08:04;100660.50;;;16.69;90.61
76297;BME280;65104;52.994;6.552;2023-07-16T00:10:29;100658.84;;;16.64;89.88
76297;BME280;65104;52.994;6.552;2023-07-16T00:12:55;100660.56;;;16.63;93.60
76297;BME280;65104;52.994;6.552;2023-07-16T00:15:21;100670.94;;;16.62;89.78
76297;BME280;65104;52.994;6.552;2023-07-16T00:17:47;100664.91;;;16.55;92.67
76297;BME280;65104;52.994;6.552;2023-07-16T00:20:12;100665.78;;;16.54;94.31
76297;BME280;65104;52.994;6.552;2023-07-16T00:22:37;100671.88;;;16.47;93.61
76297;BME280;65104;52.994;6.552;2023-07-16T00:25:05;100660.63;;;16.49;93.90
76297;BME280;65104;52.994;6.552;2023-07-16T00:27:31;100664.16;;;16.42;93.81
76297;BME280;65104;52.994;6.552;2023-07-16T00:29:56;100663.31;;;16.37;95.75
76297;BME280;65104;52.994;6.552;2023-07-16T00:32:21;100650.38;;;16.36;96.00
76297;BME280;65104;52.994;6.552;2023-07-16T00:34:47;100652.06;;;16.41;97.45
76297;BME280;65104;52.994;6.552;2023-07-16T00:37:12;100654.66;;;16.40;100.00
76297;BME280;65104;52.994;6.552;2023-07-16T00:39:37;100660.69;;;16.43;98.84
76297;BME280;65104;52.994;6.552;2023-07-16T00:42:03;100632.19;;;16.39;97.10
76297;BME280;65104;52.994;6.552;2023-07-16T00:44:28;100640.75;;;16.51;96.89
76297;BME280;65104;52.994;6.552;2023-07-16T00:46:54;100651.06;;;16.56;96.92
76297;BME280;65104;52.994;6.552;2023-07-16T00:49:19;100643.34;;;16.53;96.90
76297;BME280;65104;52.994;6.552;2023-07-16T00:51:45;100648.50;;;16.55;97.29
76297;BME280;65104;52.994;6.552;2023-07-16T00:54:11;100649.38;;;16.55;97.38
76297;BME280;65104;52.994;6.552;2023-07-16T00:56:37;100652.75;;;16.60;97.81
76297;BME280;65104;52.994;6.552;2023-07-16T00:59:02;100643.34;;;16.50;99.35
76297;BME280;65104;52.994;6.552;2023-07-16T01:01:28;100652.91;;;16.42;99.08
76297;BME280;65104;52.994;6.552;2023-07-16T01:03:53;100650.31;;;16.43;100.00
76297;BME280;65104;52.994;6.552;2023-07-16T01:06:39;100655.50;;;16.43;100.00
76297;BME280;65104;52.994;6.552;2023-07-16T01:09:19;100642.56;;;16.39;100.00
76297;BME280;65104;52.994;6.552;2023-07-16T01:11:46;100651.22;;;16.38;100.00
76297;BME280;65104;52.994;6.552;2023-07-16T01:14:18;100656.41;;;16.38;100.00
76297;BME280;65104;52.994;6.552;2023-07-16T01:16:44;100653.00;;;16.34;100.00
76297;BME280;65104;52.994;6.552;2023-07-16T01:19:10;100645.28;;;16.28;100.00
76297;BME280;65104;52.994;6.552;2023-07-16T01:21:46;100654.78;;;16.28;100.00
76297;BME280;65104;52.994;6.552;2023-07-16T01:24:21;100645.28;;;16.25;100.00
76297;BME280;65104;52.994;6.552;2023-07-16T01:29:41;100647.88;;;16.24;100.00
76297;BME280;65104;52.994;6.552;2023-07-16T01:32:09;100633.31;;;16.07;100.00
76297;BME280;65104;52.994;6.552;2023-07-16T01:34:38;100634.16;;;16.11;100.00
76297;BME280;65104;52.994;6.552;2023-07-16T01:37:04;100638.47;;;16.12;100.00
76297;BME280;65104;52.994;6.552;2023-07-16T01:39:31;100646.28;;;16.04;100.00
76297;BME280;65104;52.994;6.552;2023-07-16T01:41:58;100646.34;;;15.98;100.00
76297;BME280;65104;52.994;6.552;2023-07-16T01:44:23;100640.25;;;16.04;100.00
76297;BME280;65104;52.994;6.552;2023-07-16T01:47:08;100651.41;;;16.10;100.00
76297;BME280;65104;52.994;6.552;2023-07-16T01:49:34;100643.63;;;16.13;100.00
76297;BME280;65104;52.994;6.552;2023-07-16T01:52:01;100654.00;;;16.13;100.00
76297;BME280;65104;52.994;6.552;2023-07-16T01:54:26;100639.31;;;16.12;100.00
76297;BME280;65104;52.994;6.552;2023-07-16T01:56:52;100644.53;;;16.09;100.00
76297;BME280;65104;52.994;6.552;2023-07-16T01:59:17;100639.31;;;16.16;100.00
76297;BME280;65104;52.994;6.552;2023-07-16T02:01:42;100647.00;;;16.26;100.00
76297;BME280;65104;52.994;6.552;2023-07-16T02:04:08;100654.72;;;16.31;100.00
76297;BME280;65104;52.994;6.552;2023-07-16T02:06:33;100641.78;;;16.29;100.00
76297;BME280;65104;52.994;6.552;2023-07-16T02:08:58;100648.69;;;16.29;100.00
76297;BME280;65104;52.994;6.552;2023-07-16T02:11:24;100644.34;;;16.34;100.00
76297;BME280;65104;52.994;6.552;2023-07-16T02:13:49;100636.56;;;16.37;100.00
76297;BME280;65104;52.994;6.552;2023-07-16T02:16:15;100653.81;;;16.38;100.00
76297;BME280;65104;52.994;6.552;2023-07-16T02:18:40;100629.59;;;16.45;100.00
76297;BME280;65104;52.994;6.552;2023-07-16T02:21:05;100635.59;;;16.47;100.00
76297;BME280;65104;52.994;6.552;2023-07-16T02:23:30;100632.13;;;16.48;100.00
76297;BME280;65104;52.994;6.552;2023-07-16T02:25:56;100633.84;;;16.49;99.70
76297;BME280;65104;52.994;6.552;2023-07-16T02:28:21;100637.28;;;16.54;98.04
76297;BME280;65104;52.994;6.552;2023-07-16T02:30:48;100633.78;;;16.63;97.32
76297;BME280;65104;52.994;6.552;2023-07-16T02:33:14;100629.47;;;16.62;96.45
76297;BME280;65104;52.994;6.552;2023-07-16T02:35:39;100628.59;;;16.61;95.85
76297;BME280;65104;52.994;6.552;2023-07-16T02:38:04;100629.44;;;16.63;94.39
76297;BME280;65104;52.994;6.552;2023-07-16T02:40:30;100630.31;;;16.62;94.44
76297;BME280;65104;52.994;6.552;2023-07-16T02:42:55;100632.88;;;16.61;92.39
76297;BME280;65104;52.994;6.552;2023-07-16T02:45:21;100641.53;;;16.60;92.74
76297;BME280;65104;52.994;6.552;2023-07-16T02:47:46;100635.50;;;16.56;92.66
76297;BME280;65104;52.994;6.552;2023-07-16T02:50:11;100639.78;;;16.65;91.86
76297;BME280;65104;52.994;6.552;2023-07-16T02:52:37;100635.44;;;16.68;91.67
76297;BME280;65104;52.994;6.552;2023-07-16T02:55:03;100642.38;;;16.66;90.97
76297;BME280;65104;52.994;6.552;2023-07-16T02:57:29;100639.78;;;16.65;92.57
76297;BME280;65104;52.994;6.552;2023-07-16T02:59:54;100638.94;;;16.60;92.29
76297;BME280;65104;52.994;6.552;2023-07-16T03:02:20;100648.44;;;16.59;92.18
76297;BME280;65104;52.994;6.552;2023-07-16T03:04:45;100642.41;;;16.57;92.64
76297;BME280;65104;52.994;6.552;2023-07-16T03:07:10;100646.81;;;16.50;93.68
76297;BME280;65104;52.994;6.552;2023-07-16T03:09:36;100640.66;;;16.59;92.84
76297;BME280;65104;52.994;6.552;2023-07-16T03:12:01;100645.88;;;16.56;93.35
76297;BME280;65104;52.994;6.552;2023-07-16T03:14:26;100645.94;;;16.50;93.85
76297;BME280;65104;52.994;6.552;2023-07-16T03:16:52;100646.78;;;16.54;94.76
76297;BME280;65104;52.994;6.552;2023-07-16T03:19:17;100652.88;;;16.46;93.97
76297;BME280;65104;52.994;6.552;2023-07-16T03:21:42;100652.06;;;16.43;95.08
76297;BME280;65104;52.994;6.552;2023-07-16T03:24:08;100662.44;;;16.38;95.45
76297;BME280;65104;52.994;6.552;2023-07-16T03:26:33;100648.63;;;16.38;95.87
76297;BME280;65104;52.994;6.552;2023-07-16T03:28:59;100651.19;;;16.41;96.27
76297;BME280;65104;52.994;6.552;2023-07-16T03:31:24;100655.53;;;16.40;95.59
76297;BME280;65104;52.994;6.552;2023-07-16T03:33:49;100650.34;;;16.39;96.51
76297;BME280;65104;52.994;6.552;2023-07-16T03:36:15;100651.25;;;16.36;97.09
76297;BME280;65104;52.994;6.552;2023-07-16T03:38:40;100650.47;;;16.24;98.28
76297;BME280;65104;52.994;6.552;2023-07-16T03:41:05;100655.66;;;16.22;98.20
76297;BME280;65104;52.994;6.552;2023-07-16T03:43:31;100659.97;;;16.25;99.63
76297;BME280;65104;52.994;6.552;2023-07-16T03:45:56;100658.31;;;16.18;98.31
76297;BME280;65104;52.994;6.552;2023-07-16T03:48:21;100664.31;;;16.21;99.06
76297;BME280;65104;52.994;6.552;2023-07-16T03:50:47;100670.34;;;16.25;99.70
76297;BME280;65104;52.994;6.552;2023-07-16T03:53:13;100661.72;;;16.20;100.00
76297;BME280;65104;52.994;6.552;2023-07-16T03:55:38;100666.06;;;16.18;100.00
76297;BME280;65104;52.994;6.552;2023-07-16T03:58:03;100666.03;;;16.22;100.00
76297;BME280;65104;52.994;6.552;2023-07-16T04:00:29;100670.38;;;16.19;100.00
76297;BME280;65104;52.994;6.552;2023-07-16T04:02:54;100665.22;;;16.16;100.00
76297;BME280;65104;52.994;6.552;2023-07-16T04:05:19;100660.84;;;16.22;99.44
76297;BME280;65104;52.994;6.552;2023-07-16T04:07:45;100671.19;;;16.22;100.00
76297;BME280;65104;52.994;6.552;2023-07-16T04:10:10;100678.16;;;16.17;100.00
76297;BME280;65104;52.994;6.552;2023-07-16T04:12:35;100666.13;;;16.10;100.00
76297;BME280;65104;52.994;6.552;2023-07-16T04:15:07;100678.16;;;16.14;100.00
76297;BME280;65104;52.994;6.552;2023-07-16T04:17:32;100679.91;;;16.13;100.00
76297;BME280;65104;52.994;6.552;2023-07-16T04:19:58;100673.84;;;16.13;100.00
76297;BME280;65104;52.994;6.552;2023-07-16T04:22:23;100673.84;;;16.16;100.00
76297;BME280;65104;52.994;6.552;2023-07-16T04:24:49;100676.44;;;16.18;100.00
76297;BME280;65104;52.994;6.552;2023-07-16T04:27:14;100678.19;;;16.12;100.00
76297;BME280;65104;52.994;6.552;2023-07-16T04:29:39;100685.94;;;16.17;100.00
76297;BME280;65104;52.994;6.552;2023-07-16T04:32:05;100683.34;;;16.17;100.00
76297;BME280;65104;52.994;6.552;2023-07-16T04:34:30;100691.13;;;16.17;100.00
76297;BME280;65104;52.994;6.552;2023-07-16T04:36:56;100694.50;;;16.27;100.00
76297;BME280;65104;52.994;6.552;2023-07-16T04:39:21;100691.06;;;16.23;100.00
76297;BME280;65104;52.994;6.552;2023-07-16T04:41:46;100708.34;;;16.23;100.00
76297;BME280;65104;52.994;6.552;2023-07-16T04:44:12;100708.31;;;16.26;100.00
76297;BME280;65104;52.994;6.552;2023-07-16T04:46:37;100704.00;;;16.28;100.00
76297;BME280;65104;52.994;6.552;2023-07-16T04:49:02;100701.41;;;16.28;100.00
76297;BME280;65104;52.994;6.552;2023-07-16T04:51:28;100710.88;;;16.30;100.00
76297;BME280;65104;52.994;6.552;2023-07-16T04:53:53;100702.22;;;16.33;100.00
76297;BME280;65104;52.994;6.552;2023-07-16T04:56:18;100700.50;;;16.33;100.00
76297;BME280;65104;52.994;6.552;2023-07-16T04:58:44;100714.38;;;16.28;100.00
76297;BME280;65104;52.994;6.552;2023-07-16T05:01:10;100704.88;;;16.28;100.00
76297;BME280;65104;52.994;6.552;2023-07-16T05:03:35;100707.41;;;16.30;100.00
76297;BME280;65104;52.994;6.552;2023-07-16T05:06:02;100706.53;;;16.37;100.00
76297;BME280;65104;52.994;6.552;2023-07-16T05:08:27;100715.19;;;16.31;100.00
76297;BME280;65104;52.994;6.552;2023-07-16T05:10:54;100715.19;;;16.30;100.00
76297;BME280;65104;52.994;6.552;2023-07-16T05:13:19;100727.25;;;16.37;100.00
76297;BME280;65104;52.994;6.552;2023-07-16T05:15:45;100726.41;;;16.32;100.00
76297;BME280;65104;52.994;6.552;2023-07-16T05:18:10;100731.56;;;16.38;100.00
76297;BME280;65104;52.994;6.552;2023-07-16T05:20:36;100739.31;;;16.44;100.00
76297;BME280;65104;52.994;6.552;2023-07-16T05:23:01;100725.44;;;16.46;100.00
76297;BME280;65104;52.994;6.552;2023-07-16T05:25:27;100727.16;;;16.49;100.00
76297;BME280;65104;52.994;6.552;2023-07-16T05:27:52;100738.34;;;16.56;100.00
76297;BME280;65104;52.994;6.552;2023-07-16T05:30:18;100734.00;;;16.58;100.00
76297;BME280;65104;52.994;6.552;2023-07-16T05:32:43;100743.53;;;16.56;100.00
76297;BME280;65104;52.994;6.552;2023-07-16T05:35:09;100733.97;;;16.65;100.00
76297;BME280;65104;52.994;6.552;2023-07-16T05:37:34;100741.75;;;16.65;100.00
76297;BME280;65104;52.994;6.552;2023-07-16T05:39:59;100734.84;;;16.64;100.00
76297;BME280;65104;52.994;6.552;2023-07-16T05:42:25;100741.69;;;16.76;100.00
76297;BME280;65104;52.994;6.552;2023-07-16T05:44:50;100744.28;;;16.74;100.00
76297;BME280;65104;52.994;6.552;2023-07-16T05:47:15;100739.06;;;16.80;100.00
76297;BME280;65104;52.994;6.552;2023-07-16T05:49:41;100758.91;;;16.84;100.00
76297;BME280;65104;52.994;6.552;2023-07-16T05:52:06;100747.63;;;16.90;100.00
76297;BME280;65104;52.994;6.552;2023-07-16T05:54:32;100744.97;;;16.95;100.00
76297;BME280;65104;52.994;6.552;2023-07-16T05:56:57;100755.28;;;17.04;100.00
76297;BME280;65104;52.994;6.552;2023-07-16T05:59:23;100745.72;;;17.09;100.00
76297;BME280;65104;52.994;6.552;2023-07-16T06:01:48;100744.78;;;17.17;100.00
76297;BME280;65104;52.994;6.552;2023-07-16T06:04:13;100750.78;;;17.18;100.00
76297;BME280;65104;52.994;6.552;2023-07-16T06:06:39;100752.50;;;17.23;100.00
76297;BME280;65104;52.994;6.552;2023-07-16T06:09:04;100757.59;;;17.31;99.83
76297;BME280;65104;52.994;6.552;2023-07-16T06:11:30;100760.09;;;17.43;99.71
76297;BME280;65104;52.994;6.552;2023-07-16T06:13:55;100765.97;;;17.59;97.95
76297;BME280;65104;52.994;6.552;2023-07-16T06:16:21;100763.38;;;17.62;97.18
76297;BME280;65104;52.994;6.552;2023-07-16T06:18:47;100767.72;;;17.57;97.40
76297;BME280;65104;52.994;6.552;2023-07-16T06:21:12;100759.03;;;17.58;98.20
76297;BME280;65104;52.994;6.552;2023-07-16T06:23:38;100771.06;;;17.70;96.66
76297;BME280;65104;52.994;6.552;2023-07-16T06:26:03;100768.50;;;17.67;94.50
76297;BME280;65104;52.994;6.552;2023-07-16T06:28:29;100769.78;;;18.03;94.22
76297;BME280;65104;52.994;6.552;2023-07-16T06:30:54;100769.75;;;18.06;93.84
76297;BME280;65104;52.994;6.552;2023-07-16T06:33:19;100788.75;;;18.08;93.42
76297;BME280;65104;52.994;6.552;2023-07-16T06:35:46;100787.84;;;18.13;95.13
76297;BME280;65104;52.994;6.552;2023-07-16T06:38:12;100783.50;;;18.15;92.36
76297;BME280;65104;52.994;6.552;2023-07-16T06:40:37;100808.50;;;18.22;92.24
76297;BME280;65104;52.994;6.552;2023-07-16T06:43:03;100792.19;;;18.13;92.08
76297;BME280;65104;52.994;6.552;2023-07-16T06:45:28;100791.19;;;18.21;93.70
76297;BME280;65104;52.994;6.552;2023-07-16T06:47:53;100798.09;;;18.24;92.21
76297;BME280;65104;52.994;6.552;2023-07-16T06:50:19;100787.53;;;18.34;92.33
76297;BME280;65104;52.994;6.552;2023-07-16T06:52:44;100817.69;;;18.49;88.58
76297;BME280;65104;52.994;6.552;2023-07-16T06:55:09;100810.00;;;18.42;86.92
76297;BME280;65104;52.994;6.552;2023-07-16T06:57:35;100805.81;;;18.28;88.33
76297;BME280;65104;52.994;6.552;2023-07-16T07:00:00;100822.19;;;18.36;90.04
76297;BME280;65104;52.994;6.552;2023-07-16T07:02:25;100809.44;;;18.18;88.88
76297;BME280;65104;52.994;6.552;2023-07-16T07:04:51;100836.47;;;18.05;90.22
76297;BME280;65104;52.994;6.552;2023-07-16T07:07:17;100834.72;;;18.04;89.57
76297;BME280;65104;52.994;6.552;2023-07-16T07:09:42;100828.69;;;18.02;90.61
76297;BME280;65104;52.994;6.552;2023-07-16T07:12:07;100817.34;;;18.09;91.21
76297;BME280;65104;52.994;6.552;2023-07-16T07:14:33;100825.19;;;18.05;88.40
76297;BME280;65104;52.994;6.552;2023-07-16T07:16:59;100823.94;;;18.34;89.12
76297;BME280;65104;52.994;6.552;2023-07-16T07:19:24;100822.13;;;18.43;84.32
76297;BME280;65104;52.994;6.552;2023-07-16T07:21:50;100826.25;;;18.54;85.01
76297;BME280;65104;52.994;6.552;2023-07-16T07:24:15;100823.59;;;18.62;84.59
76297;BME280;65104;52.994;6.552;2023-07-16T07:26:40;100833.28;;;18.49;84.13
76297;BME280;65104;52.994;6.552;2023-07-16T07:29:06;100828.03;;;18.52;84.79
76297;BME280;65104;52.994;6.552;2023-07-16T07:31:31;100826.25;;;18.57;82.87
76297;BME280;65104;52.994;6.552;2023-07-16T07:33:57;100837.53;;;18.58;83.15
76297;BME280;65104;52.994;6.552;2023-07-16T07:36:23;100828.84;;;18.56;84.38
76297;BME280;65104;52.994;6.552;2023-07-16T07:38:48;100832.31;;;18.55;81.56
76297;BME280;65104;52.994;6.552;2023-07-16T07:41:13;100830.38;;;18.72;81.95
76297;BME280;65104;52.994;6.552;2023-07-16T07:43:39;100826.91;;;18.71;82.10
76297;BME280;65104;52.994;6.552;2023-07-16T07:46:04;100831.22;;;18.72;80.46
76297;BME280;65104;52.994;6.552;2023-07-16T07:48:31;100845.78;;;18.87;82.73
76297;BME280;65104;52.994;6.552;2023-07-16T07:50:56;100828.94;;;19.08;81.66
76297;BME280;65104;52.994;6.552;2023-07-16T07:53:22;100845.56;;;18.99;79.92
76297;BME280;65104;52.994;6.552;2023-07-16T07:55:47;100847.25;;;19.03;81.05
76297;BME280;65104;52.994;6.552;2023-07-16T07:58:12;100841.44;;;18.88;79.82
76297;BME280;65104;52.994;6.552;2023-07-16T08:00:38;100847.44;;;18.91;80.81
76297;BME280;65104;52.994;6.552;2023-07-16T08:03:04;100860.31;;;18.99;80.90
76297;BME280;65104;52.994;6.552;2023-07-16T08:05:29;100864.59;;;19.04;80.88
76297;BME280;65104;52.994;6.552;2023-07-16T08:07:55;100862.16;;;18.92;82.28
76297;BME280;65104;52.994;6.552;2023-07-16T08:10:21;100863.31;;;18.71;82.06
76297;BME280;65104;52.994;6.552;2023-07-16T08:12:46;100863.94;;;18.89;82.47
76297;BME280;65104;52.994;6.552;2023-07-16T08:15:12;100865.44;;;19.05;81.14
76297;BME280;65104;52.994;6.552;2023-07-16T08:17:45;100869.69;;;19.10;80.66
76297;BME280;65104;52.994;6.552;2023-07-16T08:20:11;100866.81;;;19.27;79.93
76297;BME280;65104;52.994;6.552;2023-07-16T08:22:37;100856.19;;;19.39;80.75
76297;BME280;65104;52.994;6.552;2023-07-16T08:25:03;100875.19;;;19.47;82.29
76297;BME280;65104;52.994;6.552;2023-07-16T08:27:29;100870.75;;;19.51;79.95
76297;BME280;65104;52.994;6.552;2023-07-16T08:29:54;100877.72;;;19.51;78.04
76297;BME280;65104;52.994;6.552;2023-07-16T08:32:20;100881.81;;;19.65;79.37
76297;BME280;65104;52.994;6.552;2023-07-16T08:34:46;100882.69;;;19.64;80.26
76297;BME280;65104;52.994;6.552;2023-07-16T08:37:11;100890.66;;;19.57;79.60
76297;BME280;65104;52.994;6.552;2023-07-16T08:39:37;100882.91;;;19.52;78.08
76297;BME280;65104;52.994;6.552;2023-07-16T08:42:02;100888.31;;;19.40;79.15
76297;BME280;65104;52.994;6.552;2023-07-16T08:44:29;100892.53;;;19.47;78.86
76297;BME280;65104;52.994;6.552;2023-07-16T08:46:54;100889.50;;;19.71;77.51
76297;BME280;65104;52.994;6.552;2023-07-16T08:49:22;100896.16;;;19.88;75.22
76297;BME280;65104;52.994;6.552;2023-07-16T08:51:48;100886.22;;;20.08;75.46
76297;BME280;65104;52.994;6.552;2023-07-16T08:54:14;100908.03;;;20.04;74.40
76297;BME280;65104;52.994;6.552;2023-07-16T08:56:45;100897.03;;;20.31;75.08
76297;BME280;65104;52.994;6.552;2023-07-16T08:59:11;100894.66;;;20.20;75.49
76297;BME280;65104;52.994;6.552;2023-07-16T09:01:37;100907.22;;;20.46;75.97
76297;BME280;65104;52.994;6.552;2023-07-16T09:04:03;100896.69;;;20.49;73.43
76297;BME280;65104;52.994;6.552;2023-07-16T09:06:29;100923.50;;;20.13;73.58
76297;BME280;65104;52.994;6.552;2023-07-16T09:08:55;100897.47;;;20.11;76.10
76297;BME280;65104;52.994;6.552;2023-07-16T09:11:21;100909.97;;;19.93;73.80
76297;BME280;65104;52.994;6.552;2023-07-16T09:13:48;100916.25;;;19.82;73.87
76297;BME280;65104;52.994;6.552;2023-07-16T09:16:13;100920.56;;;19.83;74.29
76297;BME280;65104;52.994;6.552;2023-07-16T09:18:42;100924.06;;;19.82;74.30
76297;BME280;65104;52.994;6.552;2023-07-16T09:21:08;100926.09;;;19.65;73.67
76297;BME280;65104;52.994;6.552;2023-07-16T09:23:33;100915.69;;;19.64;74.54
76297;BME280;65104;52.994;6.552;2023-07-16T09:25:59;100933.22;;;19.56;75.09
76297;BME280;65104;52.994;6.552;2023-07-16T09:28:24;100918.25;;;19.67;76.57
76297;BME280;65104;52.994;6.552;2023-07-16T09:30:51;100930.34;;;19.69;76.33
76297;BME280;65104;52.994;6.552;2023-07-16T09:33:19;100937.25;;;19.73;77.60
76297;BME280;65104;52.994;6.552;2023-07-16T09:35:48;100940.63;;;19.78;75.61
76297;BME280;65104;52.994;6.552;2023-07-16T09:38:13;100938.50;;;20.00;76.60
76297;BME280;65104;52.994;6.552;2023-07-16T09:40:39;100952.13;;;20.14;75.11
76297;BME280;65104;52.994;6.552;2023-07-16T09:43:08;100946.22;;;20.51;72.03
76297;BME280;65104;52.994;6.552;2023-07-16T09:45:33;100947.44;;;20.76;74.08
76297;BME280;65104;52.994;6.552;2023-07-16T09:47:59;100946.63;;;21.13;72.11
76297;BME280;65104;52.994;6.552;2023-07-16T09:50:27;100971.09;;;20.67;68.95
76297;BME280;65104;52.994;6.552;2023-07-16T09:52:53;100965.50;;;20.44;70.19
76297;BME280;65104;52.994;6.552;2023-07-16T09:55:22;100971.06;;;20.70;69.30
76297;BME280;65104;52.994;6.552;2023-07-16T09:57:48;100982.28;;;20.29;69.53
76297;BME280;65104;52.994;6.552;2023-07-16T10:00:15;100968.22;;;20.39;71.79
76297;BME280;65104;52.994;6.552;2023-07-16T10:02:42;100973.94;;;20.98;68.06
76297;BME280;65104;52.994;6.552;2023-07-16T10:05:15;100978.06;;;21.08;68.41
76297;BME280;65104;52.994;6.552;2023-07-16T10:07:42;100961.19;;;20.84;67.55
76297;BME280;65104;52.994;6.552;2023-07-16T10:10:09;100967.34;;;20.82;71.71
76297;BME280;65104;52.994;6.552;2023-07-16T10:12:36;100977.25;;;20.66;70.30
76297;BME280;65104;52.994;6.552;2023-07-16T10:15:01;100986.50;;;20.38;68.85
76297;BME280;65104;52.994;6.552;2023-07-16T10:17:30;100994.44;;;20.30;69.56
76297;BME280;65104;52.994;6.552;2023-07-16T10:22:42;100979.38;;;20.46;70.46
76297;BME280;65104;52.994;6.552;2023-07-16T10:27:36;100994.03;;;21.71;65.40
76297;BME280;65104;52.994;6.552;2023-07-16T10:30:03;101009.78;;;21.67;63.44
76297;BME280;65104;52.994;6.552;2023-07-16T10:32:32;101000.16;;;21.69;63.51
76297;BME280;65104;52.994;6.552;2023-07-16T10:34:58;101002.03;;;22.33;63.36
76297;BME280;65104;52.994;6.552;2023-07-16T10:37:24;100999.75;;;22.52;61.99
76297;BME280;65104;52.994;6.552;2023-07-16T10:39:51;100985.75;;;22.55;59.84
76297;BME280;65104;52.994;6.552;2023-07-16T10:42:17;101008.19;;;21.98;62.39
76297;BME280;65104;52.994;6.552;2023-07-16T10:44:44;101018.59;;;21.64;62.96
76297;BME280;65104;52.994;6.552;2023-07-16T10:47:17;101005.09;;;21.46;66.70
76297;BME280;65104;52.994;6.552;2023-07-16T10:49:44;101002.03;;;21.28;66.09
76297;BME280;65104;52.994;6.552;2023-07-16T10:52:09;101018.97;;;21.09;66.87
76297;BME280;65104;52.994;6.552;2023-07-16T10:54:35;101020.78;;;21.04;66.64
76297;BME280;65104;52.994;6.552;2023-07-16T10:57:00;101022.94;;;20.85;69.42
76297;BME280;65104;52.994;6.552;2023-07-16T10:59:25;101023.31;;;21.09;69.35
76297;BME280;65104;52.994;6.552;2023-07-16T11:01:51;101030.47;;;21.76;66.96
76297;BME280;65104;52.994;6.552;2023-07-16T11:04:16;101032.44;;;21.68;62.13
76297;BME280;65104;52.994;6.552;2023-07-16T11:06:42;101029.78;;;21.32;62.26
76297;BME280;65104;52.994;6.552;2023-07-16T11:09:08;101039.59;;;21.21;65.53
76297;BME280;65104;52.994;6.552;2023-07-16T11:11:34;101039.84;;;21.09;66.60
76297;BME280;65104;52.994;6.552;2023-07-16T11:13:59;101039.75;;;21.12;65.52
76297;BME280;65104;52.994;6.552;2023-07-16T11:16:25;101042.19;;;21.21;64.49
76297;BME280;65104;52.994;6.552;2023-07-16T11:18:51;101049.28;;;21.15;65.16
76297;BME280;65104;52.994;6.552;2023-07-16T11:21:18;101034.47;;;21.15;64.36
76297;BME280;65104;52.994;6.552;2023-07-16T11:23:45;101039.38;;;21.30;65.32
76297;BME280;65104;52.994;6.552;2023-07-16T11:26:10;101041.13;;;21.31;66.09
76297;BME280;65104;52.994;6.552;2023-07-16T11:28:40;101050.25;;;21.11;65.68
76297;BME280;65104;52.994;6.552;2023-07-16T11:31:16;101051.63;;;20.85;66.10
76297;BME280;65104;52.994;6.552;2023-07-16T11:33:45;101063.28;;;20.69;66.60
76297;BME280;65104;52.994;6.552;2023-07-16T11:36:11;101062.91;;;20.43;66.83
76297;BME280;65104;52.994;6.552;2023-07-16T11:38:38;101068.97;;;20.43;68.47
76297;BME280;65104;52.994;6.552;2023-07-16T11:41:03;101077.91;;;20.30;69.10
76297;BME280;65104;52.994;6.552;2023-07-16T11:43:36;101077.97;;;20.24;70.06
76297;BME280;65104;52.994;6.552;2023-07-16T11:46:02;101076.22;;;20.26;71.16
76297;BME280;65104;52.994;6.552;2023-07-16T11:48:28;101073.72;;;20.20;71.15
76297;BME280;65104;52.994;6.552;2023-07-16T11:50:53;101084.22;;;20.15;70.49
76297;BME280;65104;52.994;6.552;2023-07-16T11:53:19;101093.75;;;20.18;71.60
76297;BME280;65104;52.994;6.552;2023-07-16T11:55:44;101085.91;;;20.18;71.56
76297;BME280;65104;52.994;6.552;2023-07-16T11:58:09;101075.16;;;20.39;73.41
76297;BME280;65104;52.994;6.552;2023-07-16T12:00:35;101090.38;;;20.62;72.05
76297;BME280;65104;52.994;6.552;2023-07-16T12:03:01;101074.72;;;20.62;70.30
76297;BME280;65104;52.994;6.552;2023-07-16T12:05:26;101083.78;;;20.43;71.45
76297;BME280;65104;52.994;6.552;2023-07-16T12:07:53;101097.56;;;20.49;72.32
76297;BME280;65104;52.994;6.552;2023-07-16T12:10:18;101087.09;;;20.51;71.88
76297;BME280;65104;52.994;6.552;2023-07-16T12:12:44;101087.63;;;20.70;71.95
76297;BME280;65104;52.994;6.552;2023-07-16T12:15:09;101078.97;;;20.68;69.91
76297;BME280;65104;52.994;6.552;2023-07-16T12:17:35;101080.25;;;21.73;68.10
76297;BME280;65104;52.994;6.552;2023-07-16T12:20:02;101074.94;;;22.79;65.32
76297;BME280;65104;52.994;6.552;2023-07-16T12:22:29;101082.38;;;22.62;62.20
76297;BME280;65104;52.994;6.552;2023-07-16T12:24:54;101070.66;;;21.74;63.26
76297;BME280;65104;52.994;6.552;2023-07-16T12:27:20;101090.91;;;21.24;66.21
76297;BME280;65104;52.994;6.552;2023-07-16T12:29:46;101096.06;;;20.84;69.11
76297;BME280;65104;52.994;6.552;2023-07-16T12:32:13;101091.16;;;20.67;69.66
76297;BME280;65104;52.994;6.552;2023-07-16T12:34:38;101100.91;;;20.57;70.20
76297;BME280;65104;52.994;6.552;2023-07-16T12:37:04;101114.34;;;20.36;72.16
76297;BME280;65104;52.994;6.552;2023-07-16T12:39:29;101119.28;;;20.51;71.62
76297;BME280;65104;52.994;6.552;2023-07-16T12:41:55;101120.84;;;21.49;67.15
76297;BME280;65104;52.994;6.552;2023-07-16T12:44:20;101114.28;;;21.30;68.63
76297;BME280;65104;52.994;6.552;2023-07-16T12:46:46;101113.75;;;21.13;68.30
76297;BME280;65104;52.994;6.552;2023-07-16T12:49:11;101121.16;;;20.91;69.87